sensor_id;sensor_type;location;lat;lon;timestamp;P1;durP1;ratioP1;P2;durP2;ratioP2
11473;SDS011;5793;52.238;13.438;2022-12-18T00:01:43;42.67;;;18.90;;
11473;SDS011;5793;52.238;13.438;2022-12-18T00:04:14;52.47;;;21.40;;
11473;SDS011;5793;52.238;13.438;2022-12-18T00:06:46;38.23;;;17.73;;
11473;SDS011;5793;52.238;13.438;2022-12-18T00:09:14;35.73;;;16.77;;
11473;SDS011;5793;52.238;13.438;2022-12-18T00:11:42;41.43;;;17.83;;
11473;SDS011;5793;52.238;13.438;2022-12-18T00:14:10;44.17;;;18.07;;
11473;SDS011;5793;52.238;13.438;2022-12-18T00:16:39;43.67;;;18.13;;
11473;SDS011;5793;52.238;13.438;2022-12-18T00:19:11;41.63;;;17.77;;
11473;SDS011;5793;52.238;13.438;2022-12-18T00:21:40;41.20;;;17.90;;
11473;SDS011;5793;52.238;13.438;2022-12-18T00:24:09;37.93;;;17.63;;
11473;SDS011;5793;52.238;13.438;2022-12-18T00:26:37;42.00;;;17.97;;
11473;SDS011;5793;52.238;13.438;2022-12-18T00:29:06;43.17;;;18.43;;
11473;SDS011;5793;52.238;13.438;2022-12-18T00:31:37;45.17;;;19.23;;
11473;SDS011;5793;52.238;13.438;2022-12-18T00:34:05;46.13;;;18.70;;
11473;SDS011;5793;52.238;13.438;2022-12-18T00:36:34;43.50;;;17.97;;
11473;SDS011;5793;52.238;13.438;2022-12-18T00:39:03;42.10;;;18.00;;
11473;SDS011;5793;52.238;13.438;2022-12-18T00:41:32;40.40;;;17.73;;
11473;SDS011;5793;52.238;13.438;2022-12-18T00:44:18;41.10;;;17.73;;
11473;SDS011;5793;52.238;13.438;2022-12-18T00:46:46;44.30;;;18.53;;
11473;SDS011;5793;52.238;13.438;2022-12-18T00:49:15;51.20;;;20.40;;
11473;SDS011;5793;52.238;13.438;2022-12-18T00:51:46;49.63;;;20.10;;
11473;SDS011;5793;52.238;13.438;2022-12-18T00:54:14;49.13;;;20.47;;
11473;SDS011;5793;52.238;13.438;2022-12-18T00:56:43;48.97;;;20.23;;
11473;SDS011;5793;52.238;13.438;2022-12-18T00:59:15;43.90;;;19.63;;
11473;SDS011;5793;52.238;13.438;2022-12-18T01:01:43;56.17;;;21.23;;
11473;SDS011;5793;52.238;13.438;2022-12-18T01:04:12;59.30;;;23.20;;
11473;SDS011;5793;52.238;13.438;2022-12-18T01:06:40;57.17;;;21.90;;
11473;SDS011;5793;52.238;13.438;2022-12-18T01:09:09;59.93;;;23.47;;
11473;SDS011;5793;52.238;13.438;2022-12-18T01:11:37;61.03;;;23.07;;
11473;SDS011;5793;52.238;13.438;2022-12-18T01:14:04;57.23;;;23.30;;
11473;SDS011;5793;52.238;13.438;2022-12-18T01:16:32;63.97;;;24.17;;
11473;SDS011;5793;52.238;13.438;2022-12-18T01:19:00;65.03;;;23.13;;
11473;SDS011;5793;52.238;13.438;2022-12-18T01:21:28;59.47;;;23.43;;
11473;SDS011;5793;52.238;13.438;2022-12-18T01:23:56;57.40;;;24.37;;
11473;SDS011;5793;52.238;13.438;2022-12-18T01:26:26;64.80;;;24.33;;
11473;SDS011;5793;52.238;13.438;2022-12-18T01:28:56;63.13;;;25.93;;
11473;SDS011;5793;52.238;13.438;2022-12-18T01:31:24;69.63;;;25.33;;
11473;SDS011;5793;52.238;13.438;2022-12-18T01:33:53;63.63;;;24.87;;
11473;SDS011;5793;52.238;13.438;2022-12-18T01:36:23;72.93;;;26.47;;
11473;SDS011;5793;52.238;13.438;2022-12-18T01:38:52;78.60;;;28.70;;
11473;SDS011;5793;52.238;13.438;2022-12-18T01:41:21;78.67;;;28.70;;
11473;SDS011;5793;52.238;13.438;2022-12-18T01:43:52;78.20;;;29.43;;
11473;SDS011;5793;52.238;13.438;2022-12-18T01:46:26;81.73;;;30.67;;
11473;SDS011;5793;52.238;13.438;2022-12-18T01:48:55;80.37;;;28.57;;
11473;SDS011;5793;52.238;13.438;2022-12-18T01:51:25;80.83;;;29.63;;
11473;SDS011;5793;52.238;13.438;2022-12-18T01:53:55;74.70;;;28.97;;
11473;SDS011;5793;52.238;13.438;2022-12-18T01:56:23;74.33;;;29.63;;
11473;SDS011;5793;52.238;13.438;2022-12-18T01:58:54;69.37;;;28.40;;
11473;SDS011;5793;52.238;13.438;2022-12-18T02:01:25;79.50;;;29.40;;
11473;SDS011;5793;52.238;13.438;2022-12-18T02:03:53;80.67;;;29.03;;
11473;SDS011;5793;52.238;13.438;2022-12-18T02:06:22;79.87;;;30.17;;
11473;SDS011;5793;52.238;13.438;2022-12-18T02:08:59;84.97;;;30.13;;
11473;SDS011;5793;52.238;13.438;2022-12-18T02:11:39;82.10;;;30.70;;
11473;SDS011;5793;52.238;13.438;2022-12-18T02:14:21;77.13;;;29.43;;
11473;SDS011;5793;52.238;13.438;2022-12-18T02:16:57;79.67;;;30.23;;
11473;SDS011;5793;52.238;13.438;2022-12-18T02:19:39;82.37;;;29.57;;
11473;SDS011;5793;52.238;13.438;2022-12-18T02:22:15;77.37;;;28.57;;
11473;SDS011;5793;52.238;13.438;2022-12-18T02:25:03;75.53;;;30.57;;
11473;SDS011;5793;52.238;13.438;2022-12-18T02:27:41;86.73;;;29.87;;
11473;SDS011;5793;52.238;13.438;2022-12-18T02:30:12;83.83;;;29.90;;
11473;SDS011;5793;52.238;13.438;2022-12-18T02:32:41;76.70;;;28.77;;
11473;SDS011;5793;52.238;13.438;2022-12-18T02:35:12;74.83;;;27.97;;
11473;SDS011;5793;52.238;13.438;2022-12-18T02:37:43;62.90;;;26.20;;
11473;SDS011;5793;52.238;13.438;2022-12-18T02:40:14;68.13;;;27.90;;
11473;SDS011;5793;52.238;13.438;2022-12-18T02:42:45;74.53;;;27.80;;
11473;SDS011;5793;52.238;13.438;2022-12-18T02:45:13;88.50;;;30.07;;
11473;SDS011;5793;52.238;13.438;2022-12-18T02:47:42;88.37;;;31.03;;
11473;SDS011;5793;52.238;13.438;2022-12-18T02:50:14;80.23;;;29.03;;
11473;SDS011;5793;52.238;13.438;2022-12-18T02:52:49;82.77;;;30.30;;
11473;SDS011;5793;52.238;13.438;2022-12-18T02:55:30;86.23;;;32.07;;
11473;SDS011;5793;52.238;13.438;2022-12-18T02:58:09;91.97;;;32.57;;
11473;SDS011;5793;52.238;13.438;2022-12-18T03:00:43;91.03;;;32.73;;
11473;SDS011;5793;52.238;13.438;2022-12-18T03:03:19;90.60;;;31.60;;
11473;SDS011;5793;52.238;13.438;2022-12-18T03:05:52;87.37;;;31.03;;
11473;SDS011;5793;52.238;13.438;2022-12-18T03:08:24;93.87;;;33.57;;
11473;SDS011;5793;52.238;13.438;2022-12-18T03:10:56;83.43;;;31.60;;
11473;SDS011;5793;52.238;13.438;2022-12-18T03:13:31;87.80;;;31.50;;
11473;SDS011;5793;52.238;13.438;2022-12-18T03:16:01;85.70;;;31.03;;
11473;SDS011;5793;52.238;13.438;2022-12-18T03:18:33;89.97;;;30.43;;
11473;SDS011;5793;52.238;13.438;2022-12-18T03:21:04;82.53;;;30.37;;
11473;SDS011;5793;52.238;13.438;2022-12-18T03:23:34;94.53;;;32.80;;
11473;SDS011;5793;52.238;13.438;2022-12-18T03:26:05;97.10;;;32.63;;
11473;SDS011;5793;52.238;13.438;2022-12-18T03:28:36;87.93;;;29.97;;
11473;SDS011;5793;52.238;13.438;2022-12-18T03:31:09;89.40;;;32.07;;
11473;SDS011;5793;52.238;13.438;2022-12-18T03:33:40;84.30;;;30.70;;
11473;SDS011;5793;52.238;13.438;2022-12-18T03:36:12;85.07;;;31.27;;
11473;SDS011;5793;52.238;13.438;2022-12-18T03:38:41;79.13;;;28.73;;
11473;SDS011;5793;52.238;13.438;2022-12-18T03:41:11;73.97;;;28.37;;
11473;SDS011;5793;52.238;13.438;2022-12-18T03:43:46;72.67;;;28.17;;
11473;SDS011;5793;52.238;13.438;2022-12-18T03:46:20;77.90;;;29.27;;
11473;SDS011;5793;52.238;13.438;2022-12-18T03:48:56;77.73;;;30.63;;
11473;SDS011;5793;52.238;13.438;2022-12-18T03:51:33;75.80;;;29.60;;
11473;SDS011;5793;52.238;13.438;2022-12-18T03:54:05;78.13;;;28.73;;
11473;SDS011;5793;52.238;13.438;2022-12-18T03:56:37;79.27;;;29.87;;
11473;SDS011;5793;52.238;13.438;2022-12-18T03:59:09;73.57;;;29.97;;
11473;SDS011;5793;52.238;13.438;2022-12-18T04:01:40;78.03;;;29.97;;
11473;SDS011;5793;52.238;13.438;2022-12-18T04:04:12;83.50;;;31.27;;
11473;SDS011;5793;52.238;13.438;2022-12-18T04:06:42;76.87;;;28.93;;
11473;SDS011;5793;52.238;13.438;2022-12-18T04:09:12;82.23;;;30.20;;
11473;SDS011;5793;52.238;13.438;2022-12-18T04:11:40;77.13;;;30.70;;
11473;SDS011;5793;52.238;13.438;2022-12-18T04:14:11;83.90;;;31.80;;
11473;SDS011;5793;52.238;13.438;2022-12-18T04:16:43;82.40;;;30.60;;
11473;SDS011;5793;52.238;13.438;2022-12-18T04:19:11;85.27;;;32.03;;
11473;SDS011;5793;52.238;13.438;2022-12-18T04:21:39;70.50;;;27.97;;
11473;SDS011;5793;52.238;13.438;2022-12-18T04:24:07;79.43;;;29.83;;
11473;SDS011;5793;52.238;13.438;2022-12-18T04:26:35;76.63;;;29.00;;
11473;SDS011;5793;52.238;13.438;2022-12-18T04:29:02;70.37;;;28.90;;
11473;SDS011;5793;52.238;13.438;2022-12-18T04:31:31;78.77;;;30.53;;
11473;SDS011;5793;52.238;13.438;2022-12-18T04:33:59;81.37;;;30.53;;
11473;SDS011;5793;52.238;13.438;2022-12-18T04:36:27;80.20;;;29.00;;
11473;SDS011;5793;52.238;13.438;2022-12-18T04:38:55;91.33;;;31.83;;
11473;SDS011;5793;52.238;13.438;2022-12-18T04:41:23;81.70;;;30.23;;
11473;SDS011;5793;52.238;13.438;2022-12-18T04:43:50;80.90;;;29.83;;
11473;SDS011;5793;52.238;13.438;2022-12-18T04:46:18;84.83;;;32.17;;
11473;SDS011;5793;52.238;13.438;2022-12-18T04:48:47;84.50;;;31.13;;
11473;SDS011;5793;52.238;13.438;2022-12-18T04:51:15;90.20;;;31.10;;
11473;SDS011;5793;52.238;13.438;2022-12-18T04:53:51;80.80;;;30.93;;
11473;SDS011;5793;52.238;13.438;2022-12-18T04:56:18;78.37;;;29.20;;
11473;SDS011;5793;52.238;13.438;2022-12-18T04:58:47;81.13;;;28.23;;
11473;SDS011;5793;52.238;13.438;2022-12-18T05:01:15;87.70;;;30.93;;
11473;SDS011;5793;52.238;13.438;2022-12-18T05:03:44;80.67;;;31.80;;
11473;SDS011;5793;52.238;13.438;2022-12-18T05:06:13;84.73;;;30.53;;
11473;SDS011;5793;52.238;13.438;2022-12-18T05:08:41;95.40;;;33.33;;
11473;SDS011;5793;52.238;13.438;2022-12-18T05:11:09;82.60;;;30.93;;
11473;SDS011;5793;52.238;13.438;2022-12-18T05:13:40;95.80;;;32.27;;
11473;SDS011;5793;52.238;13.438;2022-12-18T05:16:08;87.83;;;34.20;;
11473;SDS011;5793;52.238;13.438;2022-12-18T05:18:36;83.27;;;30.97;;
11473;SDS011;5793;52.238;13.438;2022-12-18T05:21:04;87.70;;;31.17;;
11473;SDS011;5793;52.238;13.438;2022-12-18T05:23:33;86.07;;;30.10;;
11473;SDS011;5793;52.238;13.438;2022-12-18T05:26:03;82.43;;;30.30;;
11473;SDS011;5793;52.238;13.438;2022-12-18T05:28:33;92.73;;;31.37;;
11473;SDS011;5793;52.238;13.438;2022-12-18T05:31:02;83.03;;;31.70;;
11473;SDS011;5793;52.238;13.438;2022-12-18T05:33:32;89.13;;;32.87;;
11473;SDS011;5793;52.238;13.438;2022-12-18T05:36:02;85.53;;;29.53;;
11473;SDS011;5793;52.238;13.438;2022-12-18T05:38:32;81.70;;;30.50;;
11473;SDS011;5793;52.238;13.438;2022-12-18T05:41:02;82.63;;;31.00;;
11473;SDS011;5793;52.238;13.438;2022-12-18T05:43:31;73.53;;;29.40;;
11473;SDS011;5793;52.238;13.438;2022-12-18T05:46:02;85.30;;;31.57;;
11473;SDS011;5793;52.238;13.438;2022-12-18T05:48:31;83.43;;;30.80;;
11473;SDS011;5793;52.238;13.438;2022-12-18T05:51:02;80.63;;;31.13;;
11473;SDS011;5793;52.238;13.438;2022-12-18T05:53:34;85.83;;;30.37;;
11473;SDS011;5793;52.238;13.438;2022-12-18T05:56:04;77.67;;;28.77;;
11473;SDS011;5793;52.238;13.438;2022-12-18T05:58:34;78.57;;;29.80;;
11473;SDS011;5793;52.238;13.438;2022-12-18T06:01:06;79.27;;;31.03;;
11473;SDS011;5793;52.238;13.438;2022-12-18T06:03:36;77.27;;;30.30;;
11473;SDS011;5793;52.238;13.438;2022-12-18T06:06:12;77.40;;;30.83;;
11473;SDS011;5793;52.238;13.438;2022-12-18T06:08:41;71.60;;;29.27;;
11473;SDS011;5793;52.238;13.438;2022-12-18T06:11:12;127.20;;;33.50;;
11473;SDS011;5793;52.238;13.438;2022-12-18T06:13:40;79.67;;;29.20;;
11473;SDS011;5793;52.238;13.438;2022-12-18T06:16:08;73.67;;;28.37;;
11473;SDS011;5793;52.238;13.438;2022-12-18T06:18:36;71.37;;;28.47;;
11473;SDS011;5793;52.238;13.438;2022-12-18T06:21:04;67.37;;;27.80;;
11473;SDS011;5793;52.238;13.438;2022-12-18T06:23:32;66.67;;;27.50;;
11473;SDS011;5793;52.238;13.438;2022-12-18T06:26:04;66.53;;;26.80;;
11473;SDS011;5793;52.238;13.438;2022-12-18T06:28:32;69.13;;;26.03;;
11473;SDS011;5793;52.238;13.438;2022-12-18T06:31:00;56.63;;;24.13;;
11473;SDS011;5793;52.238;13.438;2022-12-18T06:33:30;63.97;;;24.83;;
11473;SDS011;5793;52.238;13.438;2022-12-18T06:35:59;59.60;;;25.50;;
11473;SDS011;5793;52.238;13.438;2022-12-18T06:38:28;53.07;;;22.57;;
11473;SDS011;5793;52.238;13.438;2022-12-18T06:40:56;63.60;;;24.70;;
11473;SDS011;5793;52.238;13.438;2022-12-18T06:43:25;56.17;;;22.67;;
11473;SDS011;5793;52.238;13.438;2022-12-18T06:45:57;55.07;;;23.03;;
11473;SDS011;5793;52.238;13.438;2022-12-18T06:48:26;56.07;;;23.27;;
11473;SDS011;5793;52.238;13.438;2022-12-18T06:50:54;54.80;;;22.67;;
11473;SDS011;5793;52.238;13.438;2022-12-18T06:53:21;55.90;;;23.07;;
11473;SDS011;5793;52.238;13.438;2022-12-18T06:55:49;58.67;;;23.00;;
11473;SDS011;5793;52.238;13.438;2022-12-18T06:58:18;52.10;;;22.93;;
11473;SDS011;5793;52.238;13.438;2022-12-18T07:00:47;62.00;;;23.60;;
11473;SDS011;5793;52.238;13.438;2022-12-18T07:03:15;57.23;;;21.77;;
11473;SDS011;5793;52.238;13.438;2022-12-18T07:05:43;57.63;;;23.07;;
11473;SDS011;5793;52.238;13.438;2022-12-18T07:08:11;54.97;;;22.93;;
11473;SDS011;5793;52.238;13.438;2022-12-18T07:10:42;57.50;;;22.63;;
11473;SDS011;5793;52.238;13.438;2022-12-18T07:13:14;58.13;;;22.73;;
11473;SDS011;5793;52.238;13.438;2022-12-18T07:15:41;56.30;;;21.73;;
11473;SDS011;5793;52.238;13.438;2022-12-18T07:18:11;54.07;;;22.67;;
11473;SDS011;5793;52.238;13.438;2022-12-18T07:20:40;53.53;;;20.83;;
11473;SDS011;5793;52.238;13.438;2022-12-18T07:23:08;48.07;;;20.90;;
11473;SDS011;5793;52.238;13.438;2022-12-18T07:25:36;57.60;;;22.50;;
11473;SDS011;5793;52.238;13.438;2022-12-18T07:28:04;55.30;;;22.90;;
11473;SDS011;5793;52.238;13.438;2022-12-18T07:30:32;45.90;;;20.63;;
11473;SDS011;5793;52.238;13.438;2022-12-18T07:33:00;50.13;;;21.17;;
11473;SDS011;5793;52.238;13.438;2022-12-18T07:35:29;47.40;;;21.37;;
11473;SDS011;5793;52.238;13.438;2022-12-18T07:37:57;52.47;;;21.70;;
11473;SDS011;5793;52.238;13.438;2022-12-18T07:40:27;50.83;;;21.13;;
11473;SDS011;5793;52.238;13.438;2022-12-18T07:42:54;42.10;;;19.27;;
11473;SDS011;5793;52.238;13.438;2022-12-18T07:45:22;47.90;;;20.10;;
11473;SDS011;5793;52.238;13.438;2022-12-18T07:47:50;49.23;;;20.90;;
11473;SDS011;5793;52.238;13.438;2022-12-18T07:50:18;48.60;;;21.17;;
11473;SDS011;5793;52.238;13.438;2022-12-18T07:52:47;46.80;;;19.80;;
11473;SDS011;5793;52.238;13.438;2022-12-18T07:55:15;51.67;;;21.37;;
11473;SDS011;5793;52.238;13.438;2022-12-18T07:57:43;48.53;;;19.57;;
11473;SDS011;5793;52.238;13.438;2022-12-18T08:00:17;42.27;;;19.03;;
11473;SDS011;5793;52.238;13.438;2022-12-18T08:02:46;52.07;;;21.37;;
11473;SDS011;5793;52.238;13.438;2022-12-18T08:05:14;48.53;;;22.30;;
11473;SDS011;5793;52.238;13.438;2022-12-18T08:07:42;48.27;;;22.20;;
11473;SDS011;5793;52.238;13.438;2022-12-18T08:10:11;50.07;;;22.77;;
11473;SDS011;5793;52.238;13.438;2022-12-18T08:12:39;46.50;;;21.07;;
11473;SDS011;5793;52.238;13.438;2022-12-18T08:15:07;50.53;;;21.00;;
11473;SDS011;5793;52.238;13.438;2022-12-18T08:17:35;49.87;;;21.33;;
11473;SDS011;5793;52.238;13.438;2022-12-18T08:20:03;49.00;;;21.30;;
11473;SDS011;5793;52.238;13.438;2022-12-18T08:22:33;55.13;;;21.90;;
11473;SDS011;5793;52.238;13.438;2022-12-18T08:25:01;49.70;;;21.30;;
11473;SDS011;5793;52.238;13.438;2022-12-18T08:27:31;50.80;;;22.07;;
11473;SDS011;5793;52.238;13.438;2022-12-18T08:29:59;53.33;;;23.30;;
11473;SDS011;5793;52.238;13.438;2022-12-18T08:32:27;50.37;;;22.13;;
11473;SDS011;5793;52.238;13.438;2022-12-18T08:34:55;55.03;;;22.23;;
11473;SDS011;5793;52.238;13.438;2022-12-18T08:37:23;205.03;;;93.23;;
11473;SDS011;5793;52.238;13.438;2022-12-18T08:39:51;54.83;;;23.27;;
11473;SDS011;5793;52.238;13.438;2022-12-18T08:42:19;45.47;;;20.73;;
11473;SDS011;5793;52.238;13.438;2022-12-18T08:45:07;49.97;;;22.57;;
11473;SDS011;5793;52.238;13.438;2022-12-18T08:47:35;49.73;;;22.00;;
11473;SDS011;5793;52.238;13.438;2022-12-18T08:50:03;50.80;;;21.73;;
11473;SDS011;5793;52.238;13.438;2022-12-18T08:52:32;43.27;;;19.03;;
11473;SDS011;5793;52.238;13.438;2022-12-18T08:55:00;39.07;;;18.33;;
11473;SDS011;5793;52.238;13.438;2022-12-18T08:57:28;42.10;;;19.63;;
11473;SDS011;5793;52.238;13.438;2022-12-18T08:59:55;38.07;;;17.73;;
11473;SDS011;5793;52.238;13.438;2022-12-18T09:02:24;39.47;;;18.33;;
11473;SDS011;5793;52.238;13.438;2022-12-18T09:04:52;37.77;;;18.33;;
11473;SDS011;5793;52.238;13.438;2022-12-18T09:07:23;32.70;;;16.00;;
11473;SDS011;5793;52.238;13.438;2022-12-18T09:09:50;36.57;;;16.50;;
11473;SDS011;5793;52.238;13.438;2022-12-18T09:12:18;38.60;;;17.47;;
11473;SDS011;5793;52.238;13.438;2022-12-18T09:14:46;38.90;;;17.93;;
11473;SDS011;5793;52.238;13.438;2022-12-18T09:17:14;38.13;;;19.00;;
11473;SDS011;5793;52.238;13.438;2022-12-18T09:19:43;37.37;;;18.03;;
11473;SDS011;5793;52.238;13.438;2022-12-18T09:22:11;37.73;;;17.67;;
11473;SDS011;5793;52.238;13.438;2022-12-18T09:24:39;34.20;;;17.23;;
11473;SDS011;5793;52.238;13.438;2022-12-18T09:27:06;38.23;;;17.20;;
11473;SDS011;5793;52.238;13.438;2022-12-18T09:29:34;38.47;;;17.77;;
11473;SDS011;5793;52.238;13.438;2022-12-18T09:32:02;35.23;;;17.13;;
11473;SDS011;5793;52.238;13.438;2022-12-18T09:34:30;35.67;;;16.03;;
11473;SDS011;5793;52.238;13.438;2022-12-18T09:37:00;35.63;;;18.13;;
11473;SDS011;5793;52.238;13.438;2022-12-18T09:39:28;33.83;;;17.17;;
11473;SDS011;5793;52.238;13.438;2022-12-18T09:41:56;38.77;;;18.57;;
11473;SDS011;5793;52.238;13.438;2022-12-18T09:44:26;34.30;;;17.27;;
11473;SDS011;5793;52.238;13.438;2022-12-18T09:46:59;35.77;;;19.73;;
11473;SDS011;5793;52.238;13.438;2022-12-18T09:49:34;39.23;;;19.27;;
11473;SDS011;5793;52.238;13.438;2022-12-18T09:52:09;37.70;;;19.93;;
11473;SDS011;5793;52.238;13.438;2022-12-18T09:54:41;37.00;;;18.70;;
11473;SDS011;5793;52.238;13.438;2022-12-18T09:57:12;35.60;;;17.13;;
11473;SDS011;5793;52.238;13.438;2022-12-18T09:59:42;39.20;;;17.57;;
11473;SDS011;5793;52.238;13.438;2022-12-18T10:02:15;37.57;;;19.60;;
11473;SDS011;5793;52.238;13.438;2022-12-18T10:04:45;33.93;;;17.40;;
11473;SDS011;5793;52.238;13.438;2022-12-18T10:07:21;39.17;;;18.90;;
11473;SDS011;5793;52.238;13.438;2022-12-18T10:09:57;39.47;;;18.67;;
11473;SDS011;5793;52.238;13.438;2022-12-18T10:12:32;42.83;;;21.73;;
11473;SDS011;5793;52.238;13.438;2022-12-18T10:15:11;39.67;;;19.47;;
11473;SDS011;5793;52.238;13.438;2022-12-18T10:17:48;271.20;;;42.33;;
11473;SDS011;5793;52.238;13.438;2022-12-18T10:20:24;44.23;;;18.80;;
11473;SDS011;5793;52.238;13.438;2022-12-18T10:22:59;35.57;;;17.87;;
11473;SDS011;5793;52.238;13.438;2022-12-18T10:25:31;38.73;;;18.20;;
11473;SDS011;5793;52.238;13.438;2022-12-18T10:28:07;33.87;;;17.50;;
11473;SDS011;5793;52.238;13.438;2022-12-18T10:30:39;36.47;;;16.20;;
11473;SDS011;5793;52.238;13.438;2022-12-18T10:33:09;37.97;;;17.63;;
11473;SDS011;5793;52.238;13.438;2022-12-18T10:35:39;36.30;;;16.80;;
11473;SDS011;5793;52.238;13.438;2022-12-18T10:38:21;38.47;;;18.87;;
11473;SDS011;5793;52.238;13.438;2022-12-18T10:40:51;35.77;;;18.50;;
11473;SDS011;5793;52.238;13.438;2022-12-18T10:43:21;45.30;;;20.40;;
11473;SDS011;5793;52.238;13.438;2022-12-18T10:45:58;40.13;;;19.53;;
11473;SDS011;5793;52.238;13.438;2022-12-18T10:48:33;41.10;;;18.73;;
11473;SDS011;5793;52.238;13.438;2022-12-18T10:51:06;41.83;;;21.63;;
11473;SDS011;5793;52.238;13.438;2022-12-18T10:53:40;32.87;;;17.40;;
11473;SDS011;5793;52.238;13.438;2022-12-18T10:56:09;33.97;;;16.93;;
11473;SDS011;5793;52.238;13.438;2022-12-18T10:58:38;33.60;;;17.60;;
11473;SDS011;5793;52.238;13.438;2022-12-18T11:01:08;33.87;;;18.33;;
11473;SDS011;5793;52.238;13.438;2022-12-18T11:03:38;31.97;;;17.43;;
11473;SDS011;5793;52.238;13.438;2022-12-18T11:06:09;31.57;;;16.77;;
11473;SDS011;5793;52.238;13.438;2022-12-18T11:08:40;35.13;;;18.73;;
11473;SDS011;5793;52.238;13.438;2022-12-18T11:11:15;33.70;;;17.27;;
11473;SDS011;5793;52.238;13.438;2022-12-18T11:13:49;34.03;;;18.20;;
11473;SDS011;5793;52.238;13.438;2022-12-18T11:16:26;37.53;;;18.33;;
11473;SDS011;5793;52.238;13.438;2022-12-18T11:18:55;36.43;;;18.10;;
11473;SDS011;5793;52.238;13.438;2022-12-18T11:21:39;32.00;;;16.20;;
11473;SDS011;5793;52.238;13.438;2022-12-18T11:24:15;33.20;;;17.33;;
11473;SDS011;5793;52.238;13.438;2022-12-18T11:26:48;32.23;;;18.20;;
11473;SDS011;5793;52.238;13.438;2022-12-18T11:29:27;37.77;;;18.30;;
11473;SDS011;5793;52.238;13.438;2022-12-18T11:32:23;37.10;;;17.67;;
11473;SDS011;5793;52.238;13.438;2022-12-18T11:34:56;28.20;;;16.83;;
11473;SDS011;5793;52.238;13.438;2022-12-18T11:37:28;32.53;;;16.00;;
11473;SDS011;5793;52.238;13.438;2022-12-18T11:39:58;30.90;;;15.63;;
11473;SDS011;5793;52.238;13.438;2022-12-18T11:42:32;29.20;;;16.00;;
11473;SDS011;5793;52.238;13.438;2022-12-18T11:45:08;26.30;;;15.50;;
11473;SDS011;5793;52.238;13.438;2022-12-18T11:47:49;26.20;;;14.90;;
11473;SDS011;5793;52.238;13.438;2022-12-18T11:50:21;27.67;;;15.57;;
11473;SDS011;5793;52.238;13.438;2022-12-18T11:52:52;31.60;;;15.77;;
11473;SDS011;5793;52.238;13.438;2022-12-18T11:55:30;27.83;;;14.90;;
11473;SDS011;5793;52.238;13.438;2022-12-18T11:58:07;27.43;;;14.07;;
11473;SDS011;5793;52.238;13.438;2022-12-18T12:00:45;27.17;;;15.57;;
11473;SDS011;5793;52.238;13.438;2022-12-18T12:03:21;27.13;;;15.60;;
11473;SDS011;5793;52.238;13.438;2022-12-18T12:06:06;29.60;;;15.97;;
11473;SDS011;5793;52.238;13.438;2022-12-18T12:08:44;32.20;;;17.50;;
11473;SDS011;5793;52.238;13.438;2022-12-18T12:11:22;27.63;;;16.13;;
11473;SDS011;5793;52.238;13.438;2022-12-18T12:14:23;29.10;;;16.97;;
11473;SDS011;5793;52.238;13.438;2022-12-18T12:17:03;22.37;;;13.70;;
11473;SDS011;5793;52.238;13.438;2022-12-18T12:19:41;26.37;;;13.60;;
11473;SDS011;5793;52.238;13.438;2022-12-18T12:22:18;24.77;;;13.60;;
11473;SDS011;5793;52.238;13.438;2022-12-18T12:24:55;22.90;;;13.17;;
11473;SDS011;5793;52.238;13.438;2022-12-18T12:27:38;25.53;;;14.33;;
11473;SDS011;5793;52.238;13.438;2022-12-18T12:30:18;23.90;;;13.50;;
11473;SDS011;5793;52.238;13.438;2022-12-18T12:32:55;24.63;;;13.27;;
11473;SDS011;5793;52.238;13.438;2022-12-18T12:35:32;22.73;;;12.47;;
11473;SDS011;5793;52.238;13.438;2022-12-18T12:38:10;18.77;;;11.53;;
11473;SDS011;5793;52.238;13.438;2022-12-18T12:40:42;23.60;;;13.57;;
11473;SDS011;5793;52.238;13.438;2022-12-18T12:43:27;23.57;;;13.33;;
11473;SDS011;5793;52.238;13.438;2022-12-18T12:45:59;21.93;;;13.03;;
11473;SDS011;5793;52.238;13.438;2022-12-18T12:48:40;28.17;;;15.27;;
11473;SDS011;5793;52.238;13.438;2022-12-18T12:51:13;26.20;;;14.73;;
11473;SDS011;5793;52.238;13.438;2022-12-18T12:53:45;27.87;;;15.17;;
11473;SDS011;5793;52.238;13.438;2022-12-18T12:56:14;26.90;;;14.77;;
11473;SDS011;5793;52.238;13.438;2022-12-18T12:58:48;29.03;;;16.43;;
11473;SDS011;5793;52.238;13.438;2022-12-18T13:01:26;24.43;;;14.93;;
11473;SDS011;5793;52.238;13.438;2022-12-18T13:04:02;28.93;;;15.73;;
11473;SDS011;5793;52.238;13.438;2022-12-18T13:06:42;30.17;;;16.00;;
11473;SDS011;5793;52.238;13.438;2022-12-18T13:09:17;30.10;;;16.67;;
11473;SDS011;5793;52.238;13.438;2022-12-18T13:11:45;27.90;;;15.17;;
11473;SDS011;5793;52.238;13.438;2022-12-18T13:14:34;28.23;;;15.87;;
11473;SDS011;5793;52.238;13.438;2022-12-18T13:17:13;29.23;;;15.60;;
11473;SDS011;5793;52.238;13.438;2022-12-18T13:20:03;27.67;;;15.93;;
11473;SDS011;5793;52.238;13.438;2022-12-18T13:22:43;29.63;;;14.93;;
11473;SDS011;5793;52.238;13.438;2022-12-18T13:25:28;24.50;;;13.63;;
11473;SDS011;5793;52.238;13.438;2022-12-18T13:28:03;29.07;;;16.30;;
11473;SDS011;5793;52.238;13.438;2022-12-18T13:30:42;29.20;;;16.57;;
11473;SDS011;5793;52.238;13.438;2022-12-18T13:36:27;42.13;;;21.43;;
11473;SDS011;5793;52.238;13.438;2022-12-18T13:39:22;43.37;;;22.63;;
11473;SDS011;5793;52.238;13.438;2022-12-18T13:45:35;41.60;;;18.13;;
11473;SDS011;5793;52.238;13.438;2022-12-18T13:48:12;38.53;;;19.43;;
11473;SDS011;5793;52.238;13.438;2022-12-18T13:50:43;34.00;;;18.83;;
11473;SDS011;5793;52.238;13.438;2022-12-18T13:53:20;47.23;;;22.83;;
11473;SDS011;5793;52.238;13.438;2022-12-18T13:55:50;54.37;;;26.13;;
11473;SDS011;5793;52.238;13.438;2022-12-18T13:58:18;51.13;;;25.07;;
11473;SDS011;5793;52.238;13.438;2022-12-18T14:00:47;64.47;;;29.43;;
11473;SDS011;5793;52.238;13.438;2022-12-18T14:03:20;72.67;;;32.57;;
11473;SDS011;5793;52.238;13.438;2022-12-18T14:05:53;74.40;;;33.53;;
11473;SDS011;5793;52.238;13.438;2022-12-18T14:08:26;79.83;;;33.50;;
11473;SDS011;5793;52.238;13.438;2022-12-18T14:10:59;85.10;;;36.27;;
11473;SDS011;5793;52.238;13.438;2022-12-18T14:13:29;89.07;;;36.63;;
11473;SDS011;5793;52.238;13.438;2022-12-18T14:16:00;82.73;;;34.10;;
11473;SDS011;5793;52.238;13.438;2022-12-18T14:18:33;81.03;;;35.03;;
11473;SDS011;5793;52.238;13.438;2022-12-18T14:21:06;80.80;;;34.70;;
11473;SDS011;5793;52.238;13.438;2022-12-18T14:23:43;77.20;;;33.17;;
11473;SDS011;5793;52.238;13.438;2022-12-18T14:26:19;67.90;;;31.60;;
11473;SDS011;5793;52.238;13.438;2022-12-18T14:28:50;69.93;;;32.50;;
11473;SDS011;5793;52.238;13.438;2022-12-18T14:31:20;69.03;;;29.67;;
11473;SDS011;5793;52.238;13.438;2022-12-18T14:33:50;64.47;;;29.30;;
11473;SDS011;5793;52.238;13.438;2022-12-18T14:36:18;62.70;;;27.93;;
11473;SDS011;5793;52.238;13.438;2022-12-18T14:38:48;61.03;;;28.23;;
11473;SDS011;5793;52.238;13.438;2022-12-18T14:41:17;66.33;;;29.83;;
11473;SDS011;5793;52.238;13.438;2022-12-18T14:43:46;60.97;;;29.33;;
11473;SDS011;5793;52.238;13.438;2022-12-18T14:46:29;59.83;;;28.77;;
11473;SDS011;5793;52.238;13.438;2022-12-18T14:49:02;55.80;;;26.93;;
11473;SDS011;5793;52.238;13.438;2022-12-18T14:51:32;53.37;;;25.83;;
11473;SDS011;5793;52.238;13.438;2022-12-18T14:54:02;55.00;;;26.40;;